Time;durP1;ratioP1;P1;durP2;ratioP2;P2;SDS_P1;SDS_P2;PMS_P1;PMS_P2;Temp;Humidity;BMP_temperature;BMP_pressure;BME280_temperature;BME280_humidity;BME280_pressure;Samples;Min_cycle;Max_cycle;Signal;HPM_P1;HPM_P2
2022/08/19 00:00:29;;;;;;;17.00;5.12;;;;;;;19.21;98.53;99032.24;1745751;81;21035;-75
2022/08/19 00:02:57;;;;;;;19.20;6.12;;;;;;;19.22;98.53;99042.98;1746454;81;20987;-78
2022/08/19 00:05:23;;;;;;;16.27;5.90;;;;;;;19.23;98.50;99036.83;1745206;82;21561;-78
2022/08/19 00:07:50;;;;;;;9.93;5.47;;;;;;;19.24;98.46;99037.03;1744466;82;20990;-73
2022/08/19 00:10:17;;;;;;;12.85;5.10;;;;;;;19.23;98.66;99041.00;1742561;81;21033;-73
2022/08/19 00:12:44;;;;;;;14.70;5.65;;;;;;;19.22;98.83;99042.19;1745438;82;22137;-73
2022/08/19 00:15:13;;;;;;;11.48;5.85;;;;;;;19.22;98.87;99039.41;1748903;82;21010;-73
2022/08/19 00:17:41;;;;;;;13.40;5.90;;;;;;;19.21;98.84;99038.60;1749021;81;20947;-74
2022/08/19 00:20:10;;;;;;;12.82;5.53;;;;;;;19.21;98.74;99039.20;1750214;81;21462;-72
2022/08/19 00:22:38;;;;;;;11.88;5.50;;;;;;;19.17;98.87;99041.95;1743502;81;21133;-76
2022/08/19 00:25:06;;;;;;;13.10;6.08;;;;;;;19.16;99.03;99045.92;1749731;81;20923;-76
2022/08/19 00:27:33;;;;;;;11.20;5.05;;;;;;;19.12;99.15;99051.45;1746697;81;20943;-75
2022/08/19 00:30:00;;;;;;;17.40;5.78;;;;;;;19.08;99.39;99052.60;1747139;82;20994;-76
2022/08/19 00:32:27;;;;;;;8.58;5.47;;;;;;;19.01;99.62;99054.76;1742397;81;20975;-75
2022/08/19 00:34:53;;;;;;;13.30;5.22;;;;;;;18.95;99.87;99052.12;1743769;82;21084;-75
2022/08/19 00:37:22;;;;;;;13.90;5.90;;;;;;;18.92;100.00;99061.23;1747660;81;20986;-75
2022/08/19 00:39:51;;;;;;;11.55;5.70;;;;;;;18.89;100.00;99059.80;1748963;82;21123;-76
2022/08/19 00:42:19;;;;;;;10.38;5.65;;;;;;;18.85;100.00;99062.55;1748512;81;21456;-76
2022/08/19 00:44:46;;;;;;;21.45;5.95;;;;;;;18.82;100.00;99064.70;1746254;81;21446;-75
2022/08/19 00:47:13;;;;;;;10.82;5.35;;;;;;;18.81;100.00;99063.11;1744700;81;21135;-75
2022/08/19 00:49:53;;;;;;;9.93;5.70;;;;;;;18.79;100.00;99052.95;1737136;81;20971;-76
2022/08/19 00:52:28;;;;;;;13.70;5.83;;;;;;;18.76;100.00;99057.89;1746732;81;21520;-76
2022/08/19 00:54:56;;;;;;;11.78;5.70;;;;;;;18.75;100.00;99057.68;1731614;82;21070;-75
2022/08/19 00:57:34;;;;;;;10.75;5.67;;;;;;;18.73;100.00;99057.27;1704494;83;21069;-77
2022/08/19 01:00:03;;;;;;;12.68;5.80;;;;;;;18.69;100.00;99051.66;1706934;83;21796;-74
2022/08/19 01:02:31;;;;;;;12.60;5.67;;;;;;;18.65;100.00;99054.20;1694549;83;20960;-75
2022/08/19 01:04:58;;;;;;;10.20;5.53;;;;;;;18.60;100.00;99050.34;1638752;84;21169;-75
2022/08/19 01:07:24;;;;;;;11.93;5.85;;;;;;;18.54;100.00;99054.05;1725730;82;20917;-75
2022/08/19 01:09:51;;;;;;;13.50;5.80;;;;;;;18.48;100.00;99051.44;1705241;83;20935;-75
2022/08/19 01:12:18;;;;;;;11.22;5.75;;;;;;;18.46;100.00;99056.58;1713513;83;21767;-77
2022/08/19 01:14:44;;;;;;;12.23;5.75;;;;;;;18.44;100.00;99065.88;1697305;83;20964;-77
2022/08/19 01:17:11;;;;;;;8.95;6.10;;;;;;;18.43;100.00;99065.67;1727775;81;21080;-77
2022/08/19 01:19:41;;;;;;;17.23;6.25;;;;;;;18.41;100.00;99071.61;1706055;83;20872;-84
2022/08/19 01:22:48;;;;;;;11.22;5.60;;;;;;;18.37;100.00;99068.58;1703542;83;21443;-80
2022/08/19 01:25:17;;;;;;;18.15;6.08;;;;;;;18.34;100.00;99067.95;1701412;83;21233;-75
2022/08/19 01:27:47;;;;;;;11.73;5.70;;;;;;;18.35;100.00;99072.33;1684527;83;21054;-77
2022/08/19 01:30:24;;;;;;;12.63;5.75;;;;;;;18.34;100.00;99072.91;1722526;82;21132;-76
2022/08/19 01:32:52;;;;;;;9.45;5.97;;;;;;;18.35;100.00;99073.72;1748566;80;21008;-76
2022/08/19 01:35:19;;;;;;;10.18;5.42;;;;;;;18.35;100.00;99067.56;1759141;80;22597;-75
2022/08/19 01:37:51;;;;;;;12.80;6.15;;;;;;;18.36;100.00;99057.25;1762749;80;21539;-74
2022/08/19 01:40:20;;;;;;;;;;;;;;;18.33;100.00;99058.81;1773567;80;20995;-72
2022/08/19 01:42:49;;;;;;;11.85;6.00;;;;;;;18.34;100.00;99048.49;1780509;80;20092;-73
2022/08/19 01:45:17;;;;;;;12.68;5.25;;;;;;;18.34;100.00;99051.27;1741750;81;20912;-73
2022/08/19 01:47:44;;;;;;;19.48;6.25;;;;;;;18.35;100.00;99045.92;1740032;81;21000;-75
2022/08/19 01:50:11;;;;;;;15.13;6.15;;;;;;;18.33;100.00;99046.30;1706344;82;21129;-75
2022/08/19 01:52:39;;;;;;;9.68;5.83;;;;;;;18.32;100.00;99041.92;1712261;83;20889;-75
2022/08/19 01:55:08;;;;;;;9.80;5.65;;;;;;;18.32;100.00;99048.87;1702527;83;21604;-76
2022/08/19 01:57:35;;;;;;;8.45;5.92;;;;;;;18.28;100.00;99042.47;1718886;82;21506;-75
2022/08/19 02:00:05;;;;;;;9.40;5.70;;;;;;;18.26;100.00;99037.89;1771349;80;20931;-77
2022/08/19 02:02:33;;;;;;;13.80;5.72;;;;;;;18.23;100.00;99030.31;1776479;80;21322;-76
2022/08/19 02:05:00;;;;;;;12.60;5.62;;;;;;;18.22;100.00;99035.66;1769004;80;21566;-74
2022/08/19 02:07:28;;;;;;;14.65;5.90;;;;;;;18.21;100.00;99038.81;1741192;81;20845;-75
2022/08/19 02:09:55;;;;;;;15.78;5.67;;;;;;;18.18;100.00;99040.95;1742295;81;21071;-74
2022/08/19 02:12:22;;;;;;;12.43;5.75;;;;;;;18.15;100.00;99037.76;1755971;80;20844;-76
2022/08/19 02:14:49;;;;;;;7.85;5.67;;;;;;;18.11;100.00;99033.33;1760753;79;21801;-74
2022/08/19 02:17:15;;;;;;;12.75;6.03;;;;;;;18.06;100.00;99037.25;1764929;80;20881;-75
2022/08/19 02:19:42;;;;;;;11.53;6.33;;;;;;;18.01;100.00;99036.19;1755988;80;20928;-75
2022/08/19 02:22:09;;;;;;;12.55;6.17;;;;;;;17.98;100.00;99035.55;1746733;80;20929;-74
2022/08/19 02:24:35;;;;;;;12.20;6.65;;;;;;;17.95;100.00;99041.06;1756712;78;20937;-74
2022/08/19 02:27:02;;;;;;;10.32;5.90;;;;;;;17.92;100.00;99048.76;1768004;80;21785;-73
2022/08/19 02:29:29;;;;;;;10.35;5.20;;;;;;;17.90;100.00;99051.94;1768731;80;20993;-75
2022/08/19 02:31:56;;;;;;;9.95;6.03;;;;;;;17.85;100.00;99050.88;1749476;80;20934;-74
2022/08/19 02:34:24;;;;;;;14.47;5.95;;;;;;;17.81;100.00;99056.97;1739225;81;21480;-74
2022/08/19 02:36:51;;;;;;;13.95;6.62;;;;;;;17.76;100.00;99055.32;1758674;80;21156;-74
2022/08/19 02:39:20;;;;;;;12.95;5.85;;;;;;;17.71;100.00;99061.78;1763046;80;21128;-74
2022/08/19 02:41:46;;;;;;;15.90;6.33;;;;;;;17.65;100.00;99059.92;1753954;80;20871;-74
2022/08/19 02:44:13;;;;;;;14.50;7.05;;;;;;;17.60;100.00;99062.98;1762685;80;21488;-75
2022/08/19 02:46:39;;;;;;;11.93;6.95;;;;;;;17.55;100.00;99057.75;1758998;81;20917;-76
2022/08/19 02:49:07;;;;;;;16.25;6.70;;;;;;;17.49;100.00;99056.47;1766144;80;20879;-75
2022/08/19 02:51:38;;;;;;;13.13;6.95;;;;;;;17.44;100.00;99065.11;1779009;80;21108;-75
2022/08/19 02:54:05;;;;;;;14.50;6.75;;;;;;;17.38;100.00;99059.08;1771032;80;21511;-75
2022/08/19 02:56:35;;;;;;;12.45;6.25;;;;;;;17.38;100.00;99057.69;1740089;81;20988;-75
2022/08/19 02:59:09;;;;;;;10.63;6.83;;;;;;;17.41;100.00;99061.70;1741692;81;20933;-76
2022/08/19 03:01:32;;;;;;;13.32;6.40;;;;;;;17.42;100.00;99062.71;1777398;80;21441;-74
2022/08/19 03:04:01;;;;;;;15.43;6.80;;;;;;;17.40;100.00;99051.19;1747668;80;21230;-76
2022/08/19 03:06:27;;;;;;;15.83;7.45;;;;;;;17.39;100.00;99059.30;1735350;81;21464;-76
2022/08/19 03:08:55;;;;;;;19.55;7.33;;;;;;;17.40;100.00;99060.09;1735427;81;21555;-74
2022/08/19 03:11:26;;;;;;;11.12;6.25;;;;;;;17.42;100.00;99071.03;1741599;80;21432;-76
2022/08/19 03:13:54;;;;;;;10.30;6.72;;;;;;;17.47;100.00;99068.53;1737264;80;20943;-76
2022/08/19 03:16:22;;;;;;;15.65;6.78;;;;;;;17.49;100.00;99064.20;1744568;80;21116;-76
2022/08/19 03:18:49;;;;;;;20.95;6.95;;;;;;;17.53;100.00;99062.08;1727719;81;20877;-77
2022/08/19 03:21:19;;;;;;;20.68;7.58;;;;;;;17.58;100.00;99063.14;1719558;81;20901;-76
2022/08/19 03:23:46;;;;;;;13.45;6.53;;;;;;;17.66;100.00;99067.66;1727655;81;20957;-77
2022/08/19 03:26:14;;;;;;;13.00;6.12;;;;;;;17.79;100.00;99070.43;1742102;81;21050;-80
2022/08/19 03:28:42;;;;;;;16.45;6.87;;;;;;;17.91;100.00;99076.34;1728043;82;21131;-77
2022/08/19 03:31:12;;;;;;;14.30;7.00;;;;;;;17.96;100.00;99075.98;1732197;81;20929;-79
2022/08/19 03:33:40;;;;;;;13.75;7.03;;;;;;;17.95;100.00;99079.35;1721488;80;20891;-78
2022/08/19 03:36:10;;;;;;;15.32;6.85;;;;;;;17.94;100.00;99076.36;1764632;80;21065;-76
2022/08/19 03:38:40;;;;;;;11.57;6.05;;;;;;;17.94;100.00;99077.75;1742420;81;21113;-79
2022/08/19 03:41:11;;;;;;;12.85;6.92;;;;;;;17.93;100.00;99073.38;1742183;81;21555;-78
2022/08/19 03:43:38;;;;;;;14.50;6.67;;;;;;;17.91;100.00;99081.28;1739326;80;21629;-79
2022/08/19 03:46:11;;;;;;;16.32;7.30;;;;;;;17.91;100.00;99084.67;1762215;80;20894;-78
2022/08/19 03:48:39;;;;;;;17.50;7.47;;;;;;;17.96;100.00;99085.12;1750478;80;21130;-79
2022/08/19 03:51:06;;;;;;;16.80;6.95;;;;;;;18.05;100.00;99087.61;1752689;80;21052;-79
2022/08/19 03:53:34;;;;;;;13.03;7.40;;;;;;;18.13;100.00;99085.14;1773755;79;21533;-76
2022/08/19 03:56:01;;;;;;;14.20;7.28;;;;;;;18.15;100.00;99084.98;1740351;81;21019;-78
2022/08/19 03:58:29;;;;;;;24.15;7.28;;;;;;;18.21;100.00;99092.39;1706799;83;20909;-79
2022/08/19 04:00:57;;;;;;;15.75;6.67;;;;;;;18.25;100.00;99090.46;1743663;81;21099;-80
2022/08/19 04:03:26;;;;;;;13.13;7.60;;;;;;;18.28;100.00;99092.48;1713132;82;20973;-80
2022/08/19 04:05:53;;;;;;;11.20;6.87;;;;;;;18.33;100.00;99094.13;1698021;84;21149;-78
2022/08/19 04:08:22;;;;;;;20.75;7.95;;;;;;;18.43;100.00;99097.04;1709322;83;20980;-78
2022/08/19 04:10:48;;;;;;;13.85;7.53;;;;;;;18.55;100.00;99099.33;1694861;82;20890;-79
2022/08/19 04:13:16;;;;;;;11.08;6.90;;;;;;;18.65;100.00;99100.88;1708899;81;20959;-79
2022/08/19 04:15:46;;;;;;;19.87;7.45;;;;;;;18.75;100.00;99104.95;1753785;80;21482;-80
2022/08/19 04:18:12;;;;;;;13.75;6.97;;;;;;;18.78;100.00;99106.97;1734665;81;21875;-81
2022/08/19 04:20:44;;;;;;;21.62;6.40;;;;;;;18.88;100.00;99110.45;1695398;82;21028;-79
2022/08/19 04:23:12;;;;;;;13.20;7.37;;;;;;;18.93;100.00;99108.72;1763104;78;21007;-79
2022/08/19 04:25:43;;;;;;;17.57;7.20;;;;;;;18.95;100.00;99114.70;1744680;81;20961;-79
2022/08/19 04:28:12;;;;;;;12.53;6.62;;;;;;;19.02;100.00;99105.62;1741642;81;21011;-81
2022/08/19 04:30:45;;;;;;;11.70;5.97;;;;;;;19.09;100.00;99108.45;1709439;83;21143;-80
2022/08/19 04:33:12;;;;;;;18.92;7.70;;;;;;;19.13;100.00;99117.63;1709229;82;20948;-75
2022/08/19 04:35:41;;;;;;;18.42;6.85;;;;;;;19.17;100.00;99112.09;1748620;80;20983;-76
2022/08/19 04:38:08;;;;;;;20.57;6.83;;;;;;;19.24;100.00;99114.95;1759644;80;20893;-79
2022/08/19 04:43:30;;;;;;;16.80;6.35;;;;;;;19.42;100.00;99116.70;1771800;80;21134;-77
2022/08/19 04:45:57;;;;;;;11.65;6.85;;;;;;;19.43;100.00;99117.50;1767885;80;20912;-77
2022/08/19 04:48:26;;;;;;;18.55;6.92;;;;;;;19.45;100.00;99132.64;1739826;81;21447;-76
2022/08/19 04:50:59;;;;;;;18.40;7.33;;;;;;;19.48;100.00;99139.42;1770163;78;21059;-76
2022/08/19 04:53:31;;;;;;;17.35;7.03;;;;;;;19.51;100.00;99134.50;1742929;81;20984;-78
2022/08/19 04:55:59;;;;;;;17.85;7.20;;;;;;;19.53;100.00;99146.05;1765567;80;21770;-79
2022/08/19 04:58:27;;;;;;;17.25;7.40;;;;;;;19.61;100.00;99141.34;1742498;81;20885;-79
2022/08/19 05:00:53;;;;;;;13.83;6.60;;;;;;;19.63;100.00;99130.63;1741483;81;21027;-78
2022/08/19 05:03:20;;;;;;;13.43;7.03;;;;;;;19.69;100.00;99133.22;1740286;81;21370;-81
2022/08/19 05:05:51;;;;;;;13.38;6.78;;;;;;;19.75;100.00;99124.13;1701562;81;20892;-82
2022/08/19 05:08:20;;;;;;;14.60;6.78;;;;;;;19.82;100.00;99125.36;1683473;82;21128;-79
2022/08/19 05:10:49;;;;;;;12.10;6.42;;;;;;;19.82;100.00;99120.59;1684949;83;20892;-80
2022/08/19 05:13:17;;;;;;;14.13;6.12;;;;;;;19.79;100.00;99126.93;1735847;81;20927;-79
2022/08/19 05:15:45;;;;;;;15.93;7.45;;;;;;;19.80;100.00;99134.09;1702168;83;21496;-81
2022/08/19 05:23:44;;;;;;;16.50;7.67;;;;;;;19.93;100.00;99131.80;1758836;80;21605;-81
2022/08/19 05:26:11;;;;;;;15.53;6.62;;;;;;;20.00;100.00;99134.63;1750213;80;21055;-82
2022/08/19 05:28:38;;;;;;;19.30;8.20;;;;;;;20.06;100.00;99126.91;1737381;80;21032;-82
2022/08/19 05:31:05;;;;;;;27.73;7.62;;;;;;;20.11;99.38;99120.17;1740405;81;21471;-80
2022/08/19 05:33:31;;;;;;;15.98;7.17;;;;;;;20.19;99.69;99123.20;1745075;82;21111;-82
2022/08/19 05:35:58;;;;;;;17.17;6.37;;;;;;;20.28;98.69;99129.19;1743147;81;21630;-82
2022/08/19 05:38:27;;;;;;;20.10;6.53;;;;;;;20.38;98.88;99128.48;1777810;80;20919;-81
2022/08/19 05:40:54;;;;;;;14.28;6.08;;;;;;;20.52;98.33;99135.31;1777105;80;20975;-80
2022/08/19 05:43:20;;;;;;;16.77;6.78;;;;;;;20.60;96.58;99136.94;1741306;81;20992;-78
2022/08/19 05:45:50;;;;;;;16.15;6.75;;;;;;;20.67;96.39;99134.17;1771379;80;21808;-76
2022/08/19 05:48:20;;;;;;;20.35;6.40;;;;;;;20.76;95.61;99132.62;1747677;80;20941;-76
2022/08/19 05:50:45;;;;;;;13.65;5.78;;;;;;;20.84;95.66;99131.21;1736801;81;20948;-76
2022/08/19 05:53:11;;;;;;;13.45;6.15;;;;;;;20.92;95.39;99128.05;1754443;80;21477;-77
2022/08/19 05:55:38;;;;;;;17.95;6.83;;;;;;;20.99;93.35;99121.69;1755757;80;20980;-75
2022/08/19 05:58:07;;;;;;;14.75;6.03;;;;;;;21.02;93.02;99123.09;1752698;80;21536;-88
2022/08/19 06:00:36;;;;;;;13.85;6.28;;;;;;;21.10;92.66;99120.52;1775162;80;20893;-87
2022/08/19 06:03:03;;;;;;;16.10;6.47;;;;;;;21.15;92.95;99115.73;1744393;81;21000;-84
2022/08/19 06:05:31;;;;;;;15.65;6.67;;;;;;;21.22;93.19;99110.98;1745335;78;21111;-75
2022/08/19 06:07:58;;;;;;;23.02;7.53;;;;;;;21.34;92.89;99108.41;1727698;82;37110;-78
2022/08/19 06:10:26;;;;;;;15.23;6.55;;;;;;;21.47;92.53;99106.78;1742623;81;21110;-77
2022/08/19 06:12:53;;;;;;;12.95;6.37;;;;;;;21.56;91.20;99106.38;1739811;81;21048;-78
2022/08/19 06:15:21;;;;;;;19.17;6.25;;;;;;;21.65;90.96;99110.38;1742287;81;21423;-77
2022/08/19 06:17:48;;;;;;;26.00;5.78;;;;;;;21.77;90.59;99109.16;1743698;81;21008;-76
2022/08/19 06:20:17;;;;;;;11.80;6.40;;;;;;;21.88;90.19;99102.95;1750075;80;21054;-77
2022/08/19 06:22:46;;;;;;;14.95;6.33;;;;;;;22.00;89.16;99104.50;1768463;78;21098;-76
2022/08/19 06:25:14;;;;;;;18.15;6.62;;;;;;;22.10;87.91;99100.91;1752436;80;20971;-74
2022/08/19 06:27:41;;;;;;;18.20;7.35;;;;;;;22.17;87.15;99102.89;1761747;80;20983;-79
2022/08/19 06:30:10;;;;;;;18.02;6.25;;;;;;;22.25;87.45;99103.06;1779962;80;21079;-78
2022/08/19 06:32:38;;;;;;;17.70;6.65;;;;;;;22.35;86.13;99107.83;1742449;81;20995;-76
2022/08/19 06:35:06;;;;;;;17.25;5.80;;;;;;;22.45;85.80;99110.39;1683947;82;21799;-76
2022/08/19 06:37:33;;;;;;;19.00;5.97;;;;;;;22.56;84.89;99113.30;1772615;80;20983;-78
2022/08/19 06:40:03;;;;;;;11.15;5.55;;;;;;;22.70;84.22;99110.44;1762792;80;21023;-77
2022/08/19 06:42:30;;;;;;;9.50;4.35;;;;;;;22.81;83.81;99106.82;1764163;80;20944;-75
2022/08/19 06:44:57;;;;;;;19.57;5.50;;;;;;;22.89;82.38;99115.37;1779986;80;21033;-77
2022/08/19 06:47:24;;;;;;;19.15;5.45;;;;;;;22.95;81.60;99116.53;1765802;80;21110;-76
2022/08/19 06:49:58;;;;;;;26.40;5.72;;;;;;;23.05;82.29;99116.47;1769046;80;21010;-81
2022/08/19 06:52:23;;;;;;;;;;;;;;;23.15;80.55;99111.18;1759217;80;20937;-80
2022/08/19 06:54:50;;;;;;;15.98;5.92;;;;;;;23.22;80.51;99113.93;1743789;80;20169;-85
2022/08/19 06:57:16;;;;;;;16.65;5.83;;;;;;;23.29;78.84;99118.08;1725654;82;21420;-81
2022/08/19 06:59:43;;;;;;;19.20;5.75;;;;;;;23.32;79.88;99117.26;1732706;82;21118;-75
2022/08/19 07:02:10;;;;;;;14.45;4.72;;;;;;;23.36;78.62;99116.02;1685015;84;21042;-80
2022/08/19 07:04:38;;;;;;;10.88;5.10;;;;;;;23.40;77.85;99127.20;1730247;82;20900;-71
2022/08/19 07:07:09;;;;;;;11.33;4.65;;;;;;;23.47;78.07;99126.34;1725929;82;20858;-76
2022/08/19 07:09:38;;;;;;;13.22;6.15;;;;;;;23.59;78.29;99128.08;1727326;82;20980;-72
2022/08/19 07:12:07;;;;;;;15.23;6.72;;;;;;;23.76;76.73;99131.91;1719297;82;21092;-74
2022/08/19 07:14:37;;;;;;;15.78;5.83;;;;;;;23.88;76.52;99129.20;1727567;82;21041;-75
2022/08/19 07:17:06;;;;;;;14.53;4.90;;;;;;;24.02;75.62;99128.45;1720226;82;20937;-71
2022/08/19 07:19:33;;;;;;;7.30;4.28;;;;;;;24.17;75.38;99122.09;1690289;83;21071;-72
2022/08/19 07:22:02;;;;;;;11.28;4.20;;;;;;;24.33;72.52;99118.70;1681281;84;21036;-73
2022/08/19 07:24:30;;;;;;;8.73;4.90;;;;;;;24.41;70.99;99122.23;1686360;83;21237;-78
2022/08/19 07:27:00;;;;;;;13.68;4.47;;;;;;;24.39;71.59;99124.66;1698066;83;21044;-83
2022/08/19 07:29:27;;;;;;;8.88;3.90;;;;;;;24.43;71.94;99129.01;1692132;83;21126;-75
2022/08/19 07:31:58;;;;;;;15.38;4.87;;;;;;;24.55;71.09;99124.86;1684795;84;21053;-75
2022/08/19 07:34:26;;;;;;;15.23;4.65;;;;;;;24.65;70.61;99126.73;1677262;85;21452;-74
2022/08/19 07:36:56;;;;;;;12.78;4.83;;;;;;;24.74;71.48;99123.42;1732663;80;21073;-76
2022/08/19 07:39:28;;;;;;;11.28;4.58;;;;;;;24.84;68.88;99126.05;1766721;79;21477;-75
2022/08/19 07:41:56;;;;;;;17.32;5.08;;;;;;;24.86;68.74;99125.02;1758609;80;21057;-71
2022/08/19 07:44:24;;;;;;;21.82;5.25;;;;;;;24.89;68.63;99119.97;1753190;80;21566;-74
2022/08/19 07:46:55;;;;;;;9.00;4.90;;;;;;;24.95;68.84;99123.89;1749766;80;21044;-71
2022/08/19 07:49:22;;;;;;;14.98;4.62;;;;;;;25.05;68.12;99121.39;1752727;80;21781;-68
2022/08/19 07:51:53;;;;;;;11.05;4.25;;;;;;;25.23;68.33;99117.70;1768326;80;20915;-73
2022/08/19 07:54:20;;;;;;;18.02;4.67;;;;;;;25.45;67.09;99118.14;1756226;80;21015;-71
2022/08/19 07:56:47;;;;;;;25.55;4.75;;;;;;;25.73;65.63;99133.77;1771019;80;20919;-72
2022/08/19 07:59:15;;;;;;;16.12;5.08;;;;;;;26.05;63.35;99131.16;1769164;80;21529;-72
2022/08/19 08:01:41;;;;;;;13.03;4.37;;;;;;;26.31;63.03;99135.91;1766553;80;21239;-77
2022/08/19 08:09:43;;;;;;;14.93;4.17;;;;;;;27.40;59.64;99142.38;1758760;80;21010;-70
2022/08/19 08:12:20;;;;;;;15.63;3.90;;;;;;;27.72;57.91;99146.48;1767522;80;21509;-72
2022/08/19 08:14:50;;;;;;;15.85;3.60;;;;;;;27.95;56.74;99144.84;1747899;80;21089;-76
2022/08/19 08:17:19;;;;;;;12.85;4.03;;;;;;;28.10;55.93;99144.64;1765959;80;20999;-74
2022/08/19 08:19:46;;;;;;;10.63;3.27;;;;;;;28.28;54.87;99151.88;1730572;81;21035;-75
2022/08/19 08:23:22;;;;;;;15.00;4.05;;;;;;;28.42;54.07;99135.92;1714364;82;21009;-76
2022/08/19 08:24:44;;;;;;;7.62;3.33;;;;;;;28.61;53.93;99120.84;1756706;80;21220;-81
2022/08/19 08:27:11;;;;;;;10.88;3.75;;;;;;;28.74;52.96;99130.77;1760932;80;21171;-78
2022/08/19 08:29:40;;;;;;;13.30;4.47;;;;;;;28.82;52.98;99125.90;1770774;80;21561;-75
2022/08/19 08:32:06;;;;;;;8.50;3.70;;;;;;;28.92;52.84;99129.61;1768506;80;21015;-75
2022/08/19 08:34:33;;;;;;;12.10;3.27;;;;;;;29.08;52.19;99132.97;1762672;80;20998;-76
2022/08/19 08:37:00;;;;;;;10.18;3.40;;;;;;;29.23;53.41;99136.93;1755800;80;21035;-74
2022/08/19 08:39:28;;;;;;;14.70;4.15;;;;;;;29.42;51.51;99133.73;1778670;80;21045;-76
2022/08/19 08:42:29;;;;;;;14.05;3.40;;;;;;;29.64;51.13;99126.73;1766244;80;20964;-77
2022/08/19 08:45:00;;;;;;;14.70;3.77;;;;;;;29.95;48.65;99124.06;1768088;80;21005;-79
2022/08/19 08:47:32;;;;;;;12.47;3.70;;;;;;;30.15;49.46;99128.80;1759619;80;20988;-75
2022/08/19 08:50:26;;;;;;;8.43;3.27;;;;;;;30.25;48.35;99131.09;1747633;81;21102;-71
2022/08/19 08:52:55;;;;;;;8.33;3.12;;;;;;;30.32;49.41;99135.08;1711429;83;21223;-76
2022/08/19 08:55:26;;;;;;;13.83;3.50;;;;;;;30.34;48.42;99126.92;1730257;81;21536;-76
2022/08/19 08:58:15;;;;;;;15.38;3.50;;;;;;;30.35;47.42;99125.67;1679286;84;21527;-79
2022/08/19 09:00:48;;;;;;;11.88;3.83;;;;;;;30.44;47.32;99129.36;1664858;85;21121;-78
2022/08/19 09:03:24;;;;;;;14.53;4.00;;;;;;;30.62;47.39;99123.04;1666420;84;21079;-79
2022/08/19 09:06:05;;;;;;;10.63;3.50;;;;;;;30.68;46.69;99133.94;1664642;85;21859;-82
2022/08/19 09:09:02;;;;;;;12.37;3.42;;;;;;;30.65;46.64;99132.03;1729670;81;20982;-76
2022/08/19 09:12:00;;;;;;;11.25;3.98;;;;;;;30.79;47.03;99138.58;1738257;82;21114;-81
2022/08/19 09:14:49;;;;;;;17.00;4.15;;;;;;;30.94;47.45;99128.91;1721498;81;21058;-80
2022/08/19 09:17:16;;;;;;;7.87;3.30;;;;;;;31.11;46.39;99128.05;1674943;84;21067;-82
2022/08/19 09:19:53;;;;;;;15.48;4.05;;;;;;;31.15;45.73;99126.68;1703674;83;21012;-80
2022/08/19 09:22:23;;;;;;;11.10;3.65;;;;;;;31.23;46.83;99128.58;1721134;82;21534;-83
2022/08/19 09:24:52;;;;;;;14.33;4.25;;;;;;;31.41;45.46;99131.48;1727103;81;21635;-77
2022/08/19 09:27:20;;;;;;;13.65;3.80;;;;;;;31.53;44.91;99134.83;1733050;82;21066;-81
2022/08/19 09:29:50;;;;;;;10.15;3.72;;;;;;;31.48;44.76;99141.13;1734312;81;21042;-74
2022/08/19 09:32:17;;;;;;;14.50;3.85;;;;;;;31.36;45.02;99139.81;1731377;82;21114;-75
2022/08/19 09:34:45;;;;;;;11.75;3.80;;;;;;;31.27;45.67;99141.98;1724761;82;20928;-77
2022/08/19 09:37:12;;;;;;;20.32;4.20;;;;;;;31.20;44.48;99138.80;1739359;82;20979;-82
2022/08/19 09:39:40;;;;;;;23.85;4.33;;;;;;;31.24;45.83;99140.08;1742091;81;20896;-76
2022/08/19 09:42:11;;;;;;;20.80;4.42;;;;;;;31.37;44.93;99136.52;1684189;84;21012;-73
2022/08/19 09:44:36;;;;;;;16.07;3.67;;;;;;;31.53;45.11;99139.72;1738896;82;21074;-73
2022/08/19 09:47:04;;;;;;;13.83;4.40;;;;;;;31.63;44.79;99142.74;1772846;80;20921;-73
2022/08/19 09:49:31;;;;;;;23.07;3.98;;;;;;;31.76;43.92;99139.81;1758586;79;21032;-72
2022/08/19 09:51:58;;;;;;;12.53;3.92;;;;;;;31.93;43.64;99143.92;1729274;81;21478;-72
2022/08/19 09:54:25;;;;;;;15.55;3.92;;;;;;;31.91;44.18;99147.06;1740307;82;20895;-71
2022/08/19 09:56:53;;;;;;;10.60;3.58;;;;;;;31.93;44.97;99151.02;1743473;82;21775;-73
2022/08/19 09:59:20;;;;;;;18.02;4.10;;;;;;;31.99;44.09;99150.55;1738302;81;20908;-74
2022/08/19 10:01:47;;;;;;;16.40;3.95;;;;;;;31.81;43.80;99143.42;1740949;82;20863;-73
2022/08/19 10:04:13;;;;;;;12.03;4.25;;;;;;;31.80;43.92;99153.19;1736684;81;21011;-75
2022/08/19 10:06:44;;;;;;;10.95;4.03;;;;;;;31.75;44.35;99147.53;1733632;81;20982;-74
2022/08/19 10:09:11;;;;;;;10.13;3.85;;;;;;;31.79;44.42;99142.47;1735007;82;21802;-82
2022/08/19 10:11:42;;;;;;;17.90;4.65;;;;;;;31.93;44.41;99148.80;1738692;81;21003;-76
2022/08/19 10:14:09;;;;;;;13.53;5.08;;;;;;;32.11;43.98;99156.72;1734265;82;21089;-75
2022/08/19 10:16:36;;;;;;;14.35;3.90;;;;;;;32.16;43.66;99156.09;1736599;81;21007;-76
2022/08/19 10:19:03;;;;;;;16.48;4.20;;;;;;;32.04;43.51;99155.61;1746266;81;21033;-76
2022/08/19 10:21:32;;;;;;;13.20;3.90;;;;;;;32.02;44.30;99153.08;1738246;82;21546;-74
2022/08/19 10:24:03;;;;;;;16.45;4.15;;;;;;;32.15;43.53;99155.94;1743706;81;21140;-73
2022/08/19 10:26:36;;;;;;;12.58;4.00;;;;;;;32.28;43.13;99158.66;1692549;83;21693;-75
2022/08/19 10:29:04;;;;;;;16.05;4.80;;;;;;;32.28;41.65;99162.91;1738041;80;21026;-72
2022/08/19 10:31:32;;;;;;;18.90;4.33;;;;;;;32.12;42.00;99163.97;1749133;79;21744;-73
2022/08/19 10:33:59;;;;;;;14.38;4.53;;;;;;;32.06;43.40;99164.44;1746569;80;21066;-73
2022/08/19 10:36:30;;;;;;;12.33;4.42;;;;;;;32.17;42.60;99174.70;1747258;80;21500;-72
2022/08/19 10:39:01;;;;;;;8.50;4.20;;;;;;;32.28;43.50;99180.59;1759657;80;21162;-71
2022/08/19 10:41:30;;;;;;;18.17;4.80;;;;;;;32.22;42.71;99171.91;1754864;80;21078;-70
2022/08/19 10:44:01;;;;;;;13.58;4.60;;;;;;;32.20;43.25;99170.14;1773919;79;21079;-74
2022/08/19 10:46:31;;;;;;;20.88;5.12;;;;;;;32.35;42.92;99166.83;1753718;78;21124;-69
2022/08/19 10:48:57;;;;;;;15.85;4.22;;;;;;;32.30;42.52;99178.85;1770556;78;21026;-71
2022/08/19 10:54:08;;;;;;;14.58;5.12;;;;;;;32.13;43.02;99179.75;1735475;82;20988;-72
2022/08/19 10:59:24;;;;;;;11.30;3.95;;;;;;;31.93;44.07;99171.52;1735698;82;21237;-78
2022/08/19 11:01:51;;;;;;;13.60;3.87;;;;;;;32.04;43.13;99169.80;1737421;81;21022;-76
2022/08/19 11:04:19;;;;;;;21.90;4.85;;;;;;;31.84;43.30;99169.44;1733598;82;21565;-77
2022/08/19 11:06:47;;;;;;;13.75;4.30;;;;;;;31.72;44.17;99170.38;1734807;82;21086;-76
2022/08/19 11:09:16;;;;;;;15.70;4.37;;;;;;;31.83;42.92;99165.03;1737600;82;21533;-77
2022/08/19 11:11:44;;;;;;;10.25;4.20;;;;;;;31.53;43.78;99177.39;1736543;82;21177;-77
2022/08/19 11:14:14;;;;;;;14.38;4.72;;;;;;;31.38;45.36;99173.54;1740921;81;21036;-76
2022/08/19 11:16:42;;;;;;;10.85;4.37;;;;;;;31.31;44.59;99168.78;1741068;82;20985;-77
2022/08/19 11:19:10;;;;;;;15.50;4.60;;;;;;;31.17;44.29;99190.00;1738808;81;21065;-76
2022/08/19 11:21:40;;;;;;;14.05;4.33;;;;;;;30.85;44.64;99190.56;1747404;80;20992;-75
2022/08/19 11:24:10;;;;;;;11.20;4.53;;;;;;;30.68;45.31;99173.60;1778830;80;21073;-75
2022/08/19 11:26:38;;;;;;;15.70;4.85;;;;;;;30.74;45.50;99172.38;1746329;80;21145;-80
2022/08/19 11:29:06;;;;;;;12.30;4.97;;;;;;;30.88;43.80;99181.14;1757819;79;21099;-81
2022/08/19 11:31:35;;;;;;;14.47;4.75;;;;;;;30.97;46.55;99176.78;1762062;78;20999;-75
2022/08/19 11:34:04;;;;;;;17.95;4.87;;;;;;;31.12;46.61;99182.86;1754703;80;21033;-73
2022/08/19 11:36:32;;;;;;;12.88;4.67;;;;;;;31.15;45.92;99193.30;1753301;80;21273;-73
2022/08/19 11:38:59;;;;;;;13.83;5.70;;;;;;;31.07;46.30;99191.97;1752749;79;20979;-73
2022/08/19 11:41:26;;;;;;;18.12;4.78;;;;;;;31.04;45.97;99200.61;1756987;80;20968;-74
2022/08/19 11:43:55;;;;;;;11.38;4.47;;;;;;;30.96;45.10;99198.66;1749370;80;20969;-74
2022/08/19 11:46:23;;;;;;;15.58;4.97;;;;;;;30.69;45.46;99194.22;1741481;81;21012;-76
2022/08/19 11:48:52;;;;;;;14.40;4.92;;;;;;;30.46;46.34;99198.28;1740106;81;20959;-75
2022/08/19 11:51:21;;;;;;;20.55;5.53;;;;;;;30.52;46.23;99193.62;1727375;81;21134;-75